KFWC

Details ICAO KFWC
Name FAIRFIELD MUNI
Region United States
Timezone America/Chicago (UTC-6.0)
Plans Departing 1
Arriving 3
Stats Elevation 436 ft / 133 m (AMSL)
Location 38.378973° -88.411368°
Runways 2
Magnetic Variation 2.846° W
Sunrise 2017-12-11 13:02:17 UTC / 2017-12-11 07:02:17 Local
Sunset 2017-12-11 22:34:39 UTC / 2017-12-11 16:34:39 Local
Advertisement - Login to hide

Runways

ID Width Length Bearing (true) Bearing (mag) Surface Threshold Offset Overrun Length
09 75 ft / 23 m 3,991 ft / 1,217 m 90.39° 93.24° Asphalt 0 ft / 0 m 0 ft / 0 m
18 60 ft / 18 m 2,003 ft / 610 m 180.61° 183.46° Asphalt 0 ft / 0 m 0 ft / 0 m
27 75 ft / 23 m 3,991 ft / 1,217 m 270.40° 273.25° Asphalt 0 ft / 0 m 0 ft / 0 m
36 60 ft / 18 m 2,003 ft / 610 m 0.61° 3.46° Asphalt 0 ft / 0 m 0 ft / 0 m

Map

Weather


0- 5 10 15 20 25 30 35+ Temperature / ° C

Clouds and Precipitation
Forecast for 2017-12-12 06:00 UTC. Updated 2 hours ago

Ground ~20,000 ft ~40,000 ft Winds

METAR

KFWC 120435Z AUTO 29012G18KT 260V330 10SM OVC030 07/01 A2992 RMK AO1 T00660005

TAF

Not found

Frequencies

Recorded 119.42 MHz AWOS 3
Unicom 123.05 MHz CTAF/UNICOM
Warning: Do not use this data for real-world aviation or navigation. No guarantee of current accuracy is given.